createdAt,value
2019-01-25T00:00:26.544Z,0.12
2019-01-25T00:02:54.010Z,0.31
2019-01-25T00:05:21.463Z,0.46
2019-01-25T00:07:48.944Z,0.48
2019-01-25T00:10:16.418Z,0.55
2019-01-25T00:12:43.905Z,0.68
2019-01-25T00:15:11.391Z,0.75
2019-01-25T00:17:38.840Z,0.73
2019-01-25T00:20:06.444Z,0.77
2019-01-25T00:22:33.803Z,0.86
2019-01-25T00:25:01.376Z,0.87
2019-01-25T00:27:28.850Z,0.89
2019-01-25T00:29:56.327Z,0.90
2019-01-25T00:32:23.797Z,0.78
2019-01-25T00:34:51.271Z,0.89
2019-01-25T00:37:18.781Z,0.91
2019-01-25T00:39:46.575Z,0.88
2019-01-25T00:42:14.312Z,0.91
2019-01-25T00:44:41.786Z,0.76
2019-01-25T00:47:09.271Z,0.93
2019-01-25T00:49:36.734Z,0.96
2019-01-25T00:52:04.221Z,0.76
2019-01-25T00:54:31.671Z,0.73
2019-01-25T00:56:59.140Z,0.83
2019-01-25T00:59:26.603Z,0.90
2019-01-25T01:01:54.101Z,0.92
2019-01-25T01:04:21.588Z,0.85
2019-01-25T01:06:49.118Z,0.95
2019-01-25T01:09:16.618Z,0.96
2019-01-25T01:11:44.888Z,0.95
2019-01-25T01:14:12.377Z,0.99
2019-01-25T01:16:39.839Z,0.89
2019-01-25T01:19:07.324Z,0.85
2019-01-25T01:21:34.786Z,0.94
2019-01-25T01:24:02.298Z,1.03
2019-01-25T01:26:29.799Z,0.95
2019-01-25T01:28:57.273Z,0.86
2019-01-25T01:31:24.769Z,0.98
2019-01-25T01:33:52.235Z,1.05
2019-01-25T01:36:19.718Z,0.99
2019-01-25T01:38:48.265Z,0.88
2019-01-25T01:41:15.807Z,0.97
2019-01-25T01:43:43.286Z,0.33
2019-01-25T01:46:10.773Z,0.81
2019-01-25T01:48:38.243Z,0.85
2019-01-25T01:51:05.742Z,0.94
2019-01-25T01:53:33.211Z,0.91
2019-01-25T01:56:00.700Z,0.96
2019-01-25T01:58:28.176Z,1.06
2019-01-25T02:00:55.652Z,1.09
2019-01-25T02:03:23.141Z,0.89
2019-01-25T02:05:50.619Z,1.02
2019-01-25T02:08:18.174Z,0.97
2019-01-25T02:10:46.040Z,0.94
2019-01-25T02:13:13.526Z,1.04
2019-01-25T02:15:41.031Z,1.11
2019-01-25T02:18:08.530Z,1.07
2019-01-25T02:20:36.012Z,1.16
2019-01-25T02:23:03.521Z,1.11
2019-01-25T02:25:30.981Z,1.13
2019-01-25T02:27:58.477Z,1.20
2019-01-25T02:30:25.949Z,1.27
2019-01-25T02:32:53.425Z,1.25
2019-01-25T02:35:20.921Z,1.24
2019-01-25T02:37:48.399Z,1.26
2019-01-25T02:40:15.864Z,1.28
2019-01-25T02:42:43.340Z,1.25
2019-01-25T02:45:10.842Z,0.91
2019-01-25T02:47:38.312Z,0.63
2019-01-25T02:50:05.846Z,0.97
2019-01-25T02:52:33.339Z,0.93
2019-01-25T02:55:00.812Z,0.75
2019-01-25T02:57:28.293Z,0.85
2019-01-25T02:59:55.763Z,0.63
2019-01-25T03:02:23.266Z,0.20
2019-01-25T03:04:50.735Z,0.33
2019-01-25T03:07:18.243Z,0.67
2019-01-25T03:09:45.701Z,0.85
2019-01-25T03:12:13.155Z,0.61
2019-01-25T03:14:40.658Z,0.11
2019-01-25T03:17:08.103Z,0.52
2019-01-25T03:19:35.597Z,0.22
2019-01-25T03:22:03.099Z,-0.03
2019-01-25T03:24:30.575Z,0.28
2019-01-25T03:26:58.074Z,-0.28
2019-01-25T03:29:25.557Z,-0.43
2019-01-25T03:31:53.087Z,-0.28
2019-01-25T03:34:20.582Z,0.22
2019-01-25T03:36:48.035Z,0.17
2019-01-25T03:39:15.509Z,-0.04
2019-01-25T03:41:42.971Z,-0.26
2019-01-25T03:44:10.450Z,-0.33
2019-01-25T03:46:37.942Z,-0.41
2019-01-25T03:49:05.414Z,-0.01
2019-01-25T03:51:32.906Z,0.31
2019-01-25T03:54:01.115Z,0.53
2019-01-25T03:56:28.611Z,0.62
2019-01-25T03:58:56.084Z,0.65
2019-01-25T04:01:23.566Z,0.65
2019-01-25T04:03:51.059Z,0.40
2019-01-25T04:06:19.281Z,0.57
2019-01-25T04:08:46.745Z,0.80
2019-01-25T04:11:14.274Z,0.70
2019-01-25T04:13:41.741Z,0.20
2019-01-25T04:16:09.211Z,0.38
2019-01-25T04:18:36.676Z,0.50
2019-01-25T04:21:04.134Z,0.51
2019-01-25T04:23:31.621Z,0.68
2019-01-25T04:25:59.078Z,0.42
2019-01-25T04:28:26.560Z,0.23
2019-01-25T04:30:54.027Z,0.05
2019-01-25T04:33:21.519Z,0.35
2019-01-25T04:35:49.357Z,0.57
2019-01-25T04:38:16.842Z,0.49
2019-01-25T04:40:44.311Z,0.15
2019-01-25T04:43:11.768Z,0.52
2019-01-25T04:45:39.313Z,0.30
2019-01-25T04:48:06.810Z,-0.22
2019-01-25T04:50:34.288Z,-0.53
2019-01-25T04:53:01.787Z,-0.37
2019-01-25T04:55:29.246Z,-0.20
2019-01-25T04:58:06.077Z,-0.95
2019-01-25T05:00:33.567Z,-0.68
2019-01-25T05:03:01.073Z,-0.59
2019-01-25T05:05:28.554Z,-0.67
2019-01-25T05:08:01.869Z,-0.41
2019-01-25T05:10:29.324Z,-0.24
2019-01-25T05:12:56.809Z,0.02
2019-01-25T05:15:24.290Z,0.21
2019-01-25T05:17:51.723Z,0.14
2019-01-25T05:20:19.832Z,0.21
2019-01-25T05:22:47.327Z,-0.02
2019-01-25T05:25:14.787Z,-0.17
2019-01-25T05:27:42.206Z,-0.06
2019-01-25T05:30:09.651Z,-0.08
2019-01-25T05:32:37.104Z,0.22
2019-01-25T05:35:04.549Z,0.16
2019-01-25T05:37:32.002Z,0.08
2019-01-25T05:39:59.480Z,0.41
2019-01-25T05:42:26.932Z,0.58
2019-01-25T05:44:54.385Z,-0.02
2019-01-25T05:47:21.800Z,0.07
2019-01-25T05:49:49.240Z,0.39
2019-01-25T05:52:16.681Z,0.52
2019-01-25T05:54:44.204Z,-0.03
2019-01-25T05:57:11.687Z,0.14
2019-01-25T05:59:39.137Z,0.30
2019-01-25T06:02:06.574Z,0.19
2019-01-25T06:04:34.075Z,-0.04
2019-01-25T06:07:01.503Z,0.21
2019-01-25T06:09:28.935Z,0.54
2019-01-25T06:11:56.367Z,0.50
2019-01-25T06:14:23.806Z,-0.16
2019-01-25T06:16:51.252Z,0.05
2019-01-25T06:19:18.705Z,0.01
2019-01-25T06:21:46.178Z,0.34
2019-01-25T06:24:13.598Z,0.46
2019-01-25T06:26:41.039Z,0.40
2019-01-25T06:29:08.471Z,0.61
2019-01-25T06:31:35.954Z,0.03
2019-01-25T06:34:03.403Z,0.28
2019-01-25T06:36:30.853Z,0.16
2019-01-25T06:38:58.297Z,0.51
2019-01-25T06:41:25.722Z,0.33
2019-01-25T06:43:53.176Z,0.47
2019-01-25T06:46:21.482Z,0.51
2019-01-25T06:48:48.923Z,0.39
2019-01-25T06:51:16.379Z,0.44
2019-01-25T06:53:43.842Z,0.61
2019-01-25T06:56:11.283Z,0.72
2019-01-25T06:58:39.649Z,-0.14
2019-01-25T07:01:11.935Z,0.30
2019-01-25T07:03:39.409Z,0.51
2019-01-25T07:06:06.856Z,0.69
2019-01-25T07:08:34.300Z,0.06
2019-01-25T07:11:01.769Z,0.21
2019-01-25T07:13:29.251Z,0.36
2019-01-25T07:15:56.715Z,0.53
2019-01-25T07:18:24.133Z,0.58
2019-01-25T07:20:52.304Z,0.52
2019-01-25T07:23:19.738Z,0.73
2019-01-25T07:25:47.206Z,0.31
2019-01-25T07:28:15.722Z,0.17
2019-01-25T07:30:43.151Z,0.28
2019-01-25T07:33:10.647Z,0.33
2019-01-25T07:35:38.081Z,0.19
2019-01-25T07:38:05.535Z,0.27
2019-01-25T07:40:33.015Z,0.17
2019-01-25T07:43:00.447Z,0.36
2019-01-25T07:45:28.105Z,0.14
2019-01-25T07:47:55.562Z,0.16
2019-01-25T07:50:23.052Z,-0.20
2019-01-25T07:52:50.499Z,-0.14
2019-01-25T07:55:17.992Z,0.19
2019-01-25T07:57:45.523Z,0.17
2019-01-25T08:00:13.022Z,0.12
2019-01-25T08:02:40.422Z,-0.13
2019-01-25T08:05:07.940Z,-0.08
2019-01-25T08:07:35.379Z,-0.23
2019-01-25T08:10:02.843Z,0.29
2019-01-25T08:12:30.338Z,0.03
2019-01-25T08:14:57.820Z,0.28
2019-01-25T08:17:25.329Z,0.05
2019-01-25T08:19:53.764Z,-0.02
2019-01-25T08:22:21.287Z,0.50
2019-01-25T08:24:48.785Z,0.00
2019-01-25T08:27:16.251Z,0.41
2019-01-25T08:29:43.698Z,0.36
2019-01-25T08:32:11.145Z,0.18
2019-01-25T08:34:38.627Z,-0.11
2019-01-25T08:37:06.107Z,-0.04
2019-01-25T08:39:33.543Z,0.32
2019-01-25T08:42:01.023Z,0.36
2019-01-25T08:44:28.482Z,0.04
2019-01-25T08:46:55.966Z,-0.17
2019-01-25T08:49:23.410Z,0.29
2019-01-25T08:51:50.893Z,0.08
2019-01-25T08:54:18.313Z,0.09
2019-01-25T08:56:46.677Z,0.35
2019-01-25T08:59:14.122Z,0.13
2019-01-25T09:01:41.559Z,0.60
2019-01-25T09:04:09.075Z,-0.03
2019-01-25T09:06:36.517Z,-0.29
2019-01-25T09:09:03.979Z,-0.08
2019-01-25T09:11:31.438Z,-0.07
2019-01-25T09:13:58.901Z,-0.09
2019-01-25T09:16:26.329Z,0.11
2019-01-25T09:18:54.304Z,-0.29
2019-01-25T09:21:21.729Z,-0.26
2019-01-25T09:23:49.176Z,-0.29
2019-01-25T09:26:16.641Z,-0.18
2019-01-25T09:28:44.111Z,-0.16
2019-01-25T09:31:11.566Z,0.06
2019-01-25T09:33:39.008Z,0.45
2019-01-25T09:36:06.471Z,0.13
2019-01-25T09:38:34.269Z,0.02
2019-01-25T09:41:01.389Z,-0.29
2019-01-25T09:43:28.825Z,0.04
2019-01-25T09:45:56.280Z,-0.14
2019-01-25T09:48:23.743Z,-0.19
2019-01-25T09:50:52.799Z,-0.08
2019-01-25T09:53:18.689Z,-0.10
2019-01-25T09:55:46.150Z,0.06
2019-01-25T09:58:13.615Z,0.02
2019-01-25T10:00:43.994Z,0.14
2019-01-25T10:03:11.464Z,0.08
2019-01-25T10:05:38.926Z,-0.06
2019-01-25T10:08:06.368Z,0.03
2019-01-25T10:10:33.818Z,0.05
2019-01-25T10:13:01.294Z,-0.05
2019-01-25T10:15:28.738Z,0.14
2019-01-25T10:17:57.907Z,0.44
2019-01-25T10:20:25.457Z,0.42
2019-01-25T10:22:52.893Z,0.29
2019-01-25T10:25:20.339Z,0.13
2019-01-25T10:27:47.756Z,0.40
2019-01-25T10:30:16.463Z,0.33
2019-01-25T10:32:43.923Z,0.62
2019-01-25T10:35:11.401Z,0.62
2019-01-25T10:37:38.835Z,0.57
2019-01-25T10:40:07.753Z,0.68
2019-01-25T10:42:35.195Z,0.58
2019-01-25T10:45:04.367Z,0.34
2019-01-25T10:47:30.152Z,0.36
2019-01-25T10:49:59.237Z,0.11
2019-01-25T10:52:25.277Z,0.27
2019-01-25T10:54:52.835Z,0.12
2019-01-25T10:57:20.606Z,0.08
2019-01-25T10:59:48.073Z,0.00
2019-01-25T11:02:15.820Z,-0.05
2019-01-25T11:04:43.407Z,0.24
2019-01-25T11:07:10.879Z,0.01
2019-01-25T11:09:38.348Z,0.03
2019-01-25T11:12:06.212Z,0.04
2019-01-25T11:14:33.642Z,0.19
2019-01-25T11:17:01.135Z,0.41
2019-01-25T11:19:28.602Z,0.08
2019-01-25T11:21:56.110Z,0.30
2019-01-25T11:24:23.605Z,0.37
2019-01-25T11:26:51.057Z,0.15
2019-01-25T11:29:18.537Z,0.08
2019-01-25T11:31:46.175Z,0.08
2019-01-25T11:34:13.666Z,0.10
2019-01-25T11:36:41.148Z,0.22
2019-01-25T11:39:08.650Z,0.25
2019-01-25T11:41:36.151Z,0.29
2019-01-25T11:44:03.839Z,0.30
2019-01-25T11:46:31.405Z,0.32
2019-01-25T11:48:58.866Z,0.35
2019-01-25T11:51:26.349Z,0.34
2019-01-25T11:53:53.961Z,0.24
2019-01-25T11:56:21.502Z,0.14
2019-01-25T11:58:49.000Z,0.17
2019-01-25T12:01:16.487Z,0.24
2019-01-25T12:03:43.917Z,0.33
2019-01-25T12:06:11.371Z,0.28
2019-01-25T12:08:38.841Z,0.41
2019-01-25T12:11:06.329Z,0.29
2019-01-25T12:13:33.770Z,0.07
2019-01-25T12:16:01.259Z,0.22
2019-01-25T12:18:28.954Z,0.22
2019-01-25T12:20:56.412Z,0.18
2019-01-25T12:23:23.871Z,0.33
2019-01-25T12:25:51.315Z,0.35
2019-01-25T12:28:18.771Z,0.37
2019-01-25T12:30:46.339Z,0.36
2019-01-25T12:33:13.767Z,0.35
2019-01-25T12:35:42.212Z,0.38
2019-01-25T12:38:09.759Z,0.56
2019-01-25T12:40:41.834Z,0.75
2019-01-25T12:43:04.747Z,0.40
2019-01-25T12:45:32.233Z,0.59
2019-01-25T12:48:00.682Z,0.70
2019-01-25T12:50:39.120Z,0.82
2019-01-25T12:53:06.579Z,0.84
2019-01-25T12:55:34.061Z,0.57
2019-01-25T12:58:01.573Z,0.81
2019-01-25T13:00:29.669Z,0.80
2019-01-25T13:02:57.236Z,0.84
2019-01-25T13:05:24.660Z,0.77
2019-01-25T13:07:52.144Z,0.91
2019-01-25T13:10:21.312Z,0.88
2019-01-25T13:12:48.778Z,1.07
2019-01-25T13:15:16.340Z,0.84
2019-01-25T13:17:43.784Z,1.09
2019-01-25T13:20:12.240Z,0.83
2019-01-25T13:22:39.702Z,1.00
2019-01-25T13:25:07.199Z,1.02
2019-01-25T13:27:34.714Z,1.00
2019-01-25T13:30:02.174Z,0.91
2019-01-25T13:32:30.394Z,1.10
2019-01-25T13:34:57.875Z,1.09
2019-01-25T13:37:25.383Z,1.22
2019-01-25T13:39:52.845Z,1.26
2019-01-25T13:42:20.333Z,1.23
2019-01-25T13:44:47.800Z,1.34
2019-01-25T13:47:15.255Z,1.53
2019-01-25T13:49:42.817Z,1.56
2019-01-25T13:52:10.280Z,1.51
2019-01-25T13:54:37.745Z,1.48
2019-01-25T13:57:05.180Z,1.60
2019-01-25T13:59:32.705Z,1.70
2019-01-25T14:02:02.150Z,1.38
2019-01-25T14:04:29.665Z,1.48
2019-01-25T14:06:57.121Z,1.78
2019-01-25T14:09:24.633Z,1.59
2019-01-25T14:11:52.233Z,1.41
2019-01-25T14:14:19.696Z,1.86
2019-01-25T14:16:47.152Z,1.52
2019-01-25T14:19:14.594Z,1.95
2019-01-25T14:21:42.079Z,1.57
2019-01-25T14:24:09.545Z,1.55
2019-01-25T14:26:37.025Z,1.67
2019-01-25T14:29:04.529Z,1.58
2019-01-25T14:31:32.043Z,1.52
2019-01-25T14:33:59.492Z,1.47
2019-01-25T14:36:27.198Z,1.71
2019-01-25T14:38:54.775Z,1.67
2019-01-25T14:41:22.441Z,1.74
2019-01-25T14:43:54.487Z,1.84
2019-01-25T14:46:17.786Z,1.76
2019-01-25T14:48:45.420Z,2.12
2019-01-25T14:51:13.535Z,2.00
2019-01-25T14:53:40.798Z,1.93
2019-01-25T14:56:08.282Z,1.94
2019-01-25T14:58:35.865Z,1.97
2019-01-25T15:01:03.359Z,2.08
2019-01-25T15:03:31.259Z,1.77
2019-01-25T15:05:58.710Z,1.74
2019-01-25T15:08:26.216Z,1.78
2019-01-25T15:10:53.717Z,1.81
2019-01-25T15:13:21.162Z,2.13
2019-01-25T15:15:48.769Z,2.08
2019-01-25T15:18:16.222Z,2.09
2019-01-25T15:20:43.894Z,2.09
2019-01-25T15:23:11.360Z,2.07
2019-01-25T15:25:38.821Z,1.87
2019-01-25T15:28:06.323Z,2.03
2019-01-25T15:30:33.800Z,1.99
2019-01-25T15:33:01.259Z,1.89
2019-01-25T15:35:28.712Z,2.03
2019-01-25T15:37:56.206Z,2.08
2019-01-25T15:40:23.641Z,1.90
2019-01-25T15:42:51.219Z,2.22
2019-01-25T15:45:18.945Z,1.93
2019-01-25T15:47:46.491Z,1.90
2019-01-25T15:50:21.360Z,2.26
2019-01-25T15:52:48.819Z,1.86
2019-01-25T15:55:16.305Z,1.99
2019-01-25T15:57:43.760Z,2.01
2019-01-25T16:00:11.964Z,2.23
2019-01-25T16:02:39.539Z,2.28
2019-01-25T16:05:07.018Z,1.97
2019-01-25T16:07:34.548Z,1.96
2019-01-25T16:10:02.100Z,2.06
2019-01-25T16:12:29.590Z,2.09
2019-01-25T16:14:59.084Z,2.18
2019-01-25T16:17:26.527Z,2.17
2019-01-25T16:19:56.423Z,2.06
2019-01-25T16:22:24.103Z,2.13
2019-01-25T16:24:52.333Z,2.10
2019-01-25T16:27:19.819Z,2.24
2019-01-25T16:29:47.281Z,2.18
2019-01-25T16:32:15.856Z,2.17
2019-01-25T16:34:43.426Z,2.20
2019-01-25T16:37:10.937Z,2.01
2019-01-25T16:39:38.440Z,1.91
2019-01-25T16:42:05.961Z,2.16
2019-01-25T16:44:36.240Z,2.08
2019-01-25T16:47:02.062Z,2.11
2019-01-25T16:49:29.526Z,2.41
2019-01-25T16:51:57.000Z,2.02
2019-01-25T16:54:25.335Z,1.78
2019-01-25T16:56:52.822Z,1.75
2019-01-25T16:59:20.287Z,2.04
2019-01-25T17:01:47.800Z,1.78
2019-01-25T17:04:15.851Z,1.54
2019-01-25T17:06:43.313Z,1.83
2019-01-25T17:09:10.794Z,1.63
2019-01-25T17:11:38.265Z,1.75
2019-01-25T17:14:05.787Z,1.69
2019-01-25T17:16:33.990Z,1.91
2019-01-25T17:19:01.487Z,1.77
2019-01-25T17:21:28.997Z,1.93
2019-01-25T17:23:56.484Z,1.51
2019-01-25T17:26:23.963Z,1.73
2019-01-25T17:28:51.432Z,1.68
2019-01-25T17:31:18.908Z,1.78
2019-01-25T17:33:46.437Z,1.67
2019-01-25T17:36:14.793Z,1.84
2019-01-25T17:38:42.278Z,1.70
2019-01-25T17:41:09.743Z,1.80
2019-01-25T17:43:37.352Z,1.67
2019-01-25T17:46:05.655Z,1.95
2019-01-25T17:48:33.125Z,1.76
2019-01-25T17:51:00.617Z,1.82
2019-01-25T17:53:28.066Z,1.61
2019-01-25T17:55:55.531Z,2.01
2019-01-25T17:58:22.966Z,1.90
2019-01-25T18:00:50.396Z,1.80
2019-01-25T18:03:17.864Z,1.62
2019-01-25T18:05:46.388Z,1.80
2019-01-25T18:08:13.898Z,1.86
2019-01-25T18:10:41.373Z,1.75
2019-01-25T18:13:08.849Z,1.93
2019-01-25T18:15:36.304Z,1.79
2019-01-25T18:18:03.764Z,1.70
2019-01-25T18:20:31.333Z,2.00
2019-01-25T18:22:58.793Z,2.06
2019-01-25T18:25:44.605Z,2.14
2019-01-25T18:28:13.747Z,2.06
2019-01-25T18:30:43.722Z,1.92
2019-01-25T18:33:11.172Z,1.87
2019-01-25T18:35:38.653Z,1.99
2019-01-25T18:38:06.686Z,2.24
2019-01-25T18:40:34.156Z,2.29
2019-01-25T18:43:01.572Z,2.05
2019-01-25T18:45:29.077Z,2.13
2019-01-25T18:47:56.566Z,2.01
2019-01-25T18:50:24.208Z,2.00
2019-01-25T18:52:51.710Z,1.98
2019-01-25T18:55:20.931Z,1.89
2019-01-25T18:57:48.514Z,1.91
2019-01-25T19:00:15.997Z,2.17
2019-01-25T19:02:43.486Z,2.09
2019-01-25T19:05:10.913Z,1.94
2019-01-25T19:07:38.377Z,2.07
2019-01-25T19:10:06.449Z,1.96
2019-01-25T19:12:33.914Z,1.87
2019-01-25T19:15:04.597Z,2.11
2019-01-25T19:17:28.921Z,2.09
2019-01-25T19:19:56.374Z,2.16
2019-01-25T19:22:24.605Z,2.14
2019-01-25T19:24:52.213Z,2.40
2019-01-25T19:27:19.645Z,2.40
2019-01-25T19:29:47.096Z,2.33
2019-01-25T19:32:14.609Z,2.12
2019-01-25T19:34:42.139Z,2.41
2019-01-25T19:37:09.562Z,2.07
2019-01-25T19:39:38.181Z,2.28
2019-01-25T19:42:05.767Z,2.32
2019-01-25T19:44:33.232Z,2.01
2019-01-25T19:47:00.851Z,2.03
2019-01-25T19:49:28.509Z,2.15
2019-01-25T19:51:56.063Z,2.53
2019-01-25T19:54:23.836Z,2.52
2019-01-25T19:56:51.332Z,2.39
2019-01-25T19:59:18.856Z,2.48
2019-01-25T20:01:46.330Z,2.40
2019-01-25T20:04:13.774Z,2.44
2019-01-25T20:06:41.286Z,2.48
2019-01-25T20:09:08.760Z,2.24
2019-01-25T20:11:36.214Z,2.20
2019-01-25T20:14:03.733Z,2.32
2019-01-25T20:16:31.589Z,2.27
2019-01-25T20:18:59.844Z,2.31
2019-01-25T20:21:28.067Z,2.23
2019-01-25T20:23:55.640Z,2.45
2019-01-25T20:26:23.144Z,2.24
2019-01-25T20:28:50.608Z,2.34
2019-01-25T20:31:18.076Z,2.28
2019-01-25T20:33:45.858Z,2.37
2019-01-25T20:36:13.102Z,2.12
2019-01-25T20:38:40.665Z,2.45
2019-01-25T20:41:08.114Z,2.49
2019-01-25T20:43:35.552Z,2.41
2019-01-25T20:46:03.223Z,2.39
2019-01-25T20:48:30.889Z,2.41
2019-01-25T20:50:58.357Z,2.42
2019-01-25T20:53:27.305Z,2.43
2019-01-25T20:55:54.862Z,2.31
2019-01-25T20:58:22.314Z,2.32
2019-01-25T21:00:50.250Z,2.55
2019-01-25T21:03:17.778Z,2.25
2019-01-25T21:05:45.246Z,2.21
2019-01-25T21:08:12.731Z,2.41
2019-01-25T21:10:40.271Z,2.46
2019-01-25T21:13:07.770Z,2.45
2019-01-25T21:15:35.742Z,2.45
2019-01-25T21:18:03.179Z,2.69
2019-01-25T21:20:32.381Z,2.59
2019-01-25T21:22:59.895Z,2.45
2019-01-25T21:25:27.422Z,2.48
2019-01-25T21:27:55.191Z,2.65
2019-01-25T21:30:22.692Z,2.82
2019-01-25T21:32:50.373Z,2.68
2019-01-25T21:35:17.866Z,2.62
2019-01-25T21:37:45.604Z,2.59
2019-01-25T21:40:13.113Z,2.61
2019-01-25T21:42:40.837Z,2.59
2019-01-25T21:45:08.274Z,2.64
2019-01-25T21:47:35.949Z,2.62
2019-01-25T21:50:03.398Z,2.65
2019-01-25T21:52:30.915Z,2.60
2019-01-25T21:54:58.614Z,2.55
2019-01-25T21:57:26.065Z,2.58
2019-01-25T21:59:53.652Z,2.66
2019-01-25T22:02:21.226Z,2.55
2019-01-25T22:04:48.835Z,2.60
2019-01-25T22:07:16.298Z,2.73
2019-01-25T22:09:44.247Z,2.85
2019-01-25T22:12:12.793Z,2.87
2019-01-25T22:14:40.406Z,2.67
2019-01-25T22:17:08.017Z,2.77
2019-01-25T22:19:35.477Z,2.93
2019-01-25T22:22:02.947Z,2.91
2019-01-25T22:24:30.416Z,2.90
2019-01-25T22:26:57.874Z,2.78
2019-01-25T22:29:25.413Z,2.90
2019-01-25T22:31:53.149Z,3.05
2019-01-25T22:34:20.605Z,2.88
2019-01-25T22:36:48.112Z,3.01
2019-01-25T22:39:15.539Z,2.96
2019-01-25T22:41:43.048Z,3.00
2019-01-25T22:44:10.564Z,3.06
2019-01-25T22:46:38.645Z,3.09
2019-01-25T22:49:06.178Z,3.26
2019-01-25T22:51:33.728Z,3.03
2019-01-25T22:54:01.171Z,3.06
2019-01-25T22:56:28.631Z,3.03
2019-01-25T22:58:56.204Z,3.08
2019-01-25T23:01:23.687Z,3.10
2019-01-25T23:03:54.060Z,3.10
2019-01-25T23:06:23.061Z,3.10
2019-01-25T23:08:50.516Z,3.01
2019-01-25T23:11:17.957Z,3.10
2019-01-25T23:13:45.448Z,3.14
2019-01-25T23:16:13.361Z,3.10
2019-01-25T23:18:40.994Z,3.21
2019-01-25T23:21:08.519Z,3.15
2019-01-25T23:23:36.034Z,3.14
2019-01-25T23:26:03.544Z,3.11
2019-01-25T23:28:31.032Z,3.18
2019-01-25T23:30:58.464Z,3.22
2019-01-25T23:33:25.923Z,3.18
2019-01-25T23:35:55.020Z,3.24
2019-01-25T23:38:22.443Z,3.28
2019-01-25T23:40:49.905Z,3.41
2019-01-25T23:43:17.408Z,3.43
2019-01-25T23:45:44.876Z,3.46
2019-01-25T23:48:12.334Z,3.62
2019-01-25T23:50:39.827Z,3.44
2019-01-25T23:53:07.298Z,3.63
2019-01-25T23:55:34.775Z,3.65
2019-01-25T23:58:02.521Z,3.51
